createdAt,value
2022-08-11T00:00:11.931Z,0
2022-08-11T00:05:45.317Z,0
2022-08-11T00:11:07.865Z,0
2022-08-11T00:16:30.385Z,0
2022-08-11T00:22:06.704Z,0
2022-08-11T00:27:29.675Z,0
2022-08-11T00:32:52.122Z,0
2022-08-11T00:38:14.760Z,0
2022-08-11T00:43:37.047Z,0
2022-08-11T00:54:22.012Z,0
2022-08-11T01:05:07.019Z,0
2022-08-11T01:10:30.967Z,0
2022-08-11T01:15:57.861Z,0
2022-08-11T01:21:20.282Z,0
2022-08-11T01:26:42.966Z,0
2022-08-11T01:32:05.643Z,0
2022-08-11T01:37:28.099Z,0
2022-08-11T01:42:54.879Z,0
2022-08-11T01:48:17.528Z,0
2022-08-11T01:53:40.408Z,0
2022-08-11T01:59:03.068Z,0
2022-08-11T02:04:25.617Z,0
2022-08-11T02:09:52.178Z,0
2022-08-11T02:15:14.999Z,0
2022-08-11T02:20:47.673Z,0
2022-08-11T02:26:10.228Z,0
2022-08-11T02:32:31.424Z,0
2022-08-11T02:37:54.184Z,0
2022-08-11T02:43:16.575Z,0
2022-08-11T02:48:38.722Z,0
2022-08-11T02:54:01.198Z,0
2022-08-11T03:10:08.319Z,0
2022-08-11T03:15:48.764Z,0
2022-08-11T03:21:11.124Z,0
2022-08-11T03:26:33.775Z,0
2022-08-11T03:31:56.172Z,0
2022-08-11T03:37:19.271Z,0
2022-08-11T03:42:41.605Z,0
2022-08-11T03:48:04.269Z,0
2022-08-11T03:53:26.909Z,0
2022-08-11T03:58:49.521Z,1
2022-08-11T04:04:12.126Z,9
2022-08-11T04:20:19.487Z,37.2
2022-08-11T04:25:59.651Z,42.6
2022-08-11T04:31:53.038Z,44.7
2022-08-11T04:37:28.871Z,53.8
2022-08-11T04:42:53.384Z,119.4
2022-08-11T04:48:15.927Z,137
2022-08-11T04:53:38.512Z,124.6
2022-08-11T04:59:00.966Z,109
2022-08-11T05:04:43.990Z,102.6
2022-08-11T05:10:06.628Z,101.8
2022-08-11T05:15:44.702Z,105.6
2022-08-11T05:21:08.273Z,111.7
2022-08-11T05:31:51.117Z,132.8
2022-08-11T05:37:28.096Z,163.4
2022-08-11T05:43:01.154Z,200
2022-08-11T05:48:23.875Z,225.6
2022-08-11T05:59:14.231Z,312
2022-08-11T06:04:39.311Z,575.8
2022-08-11T06:15:24.574Z,337.2
2022-08-11T06:20:49.367Z,1286.2
2022-08-11T06:26:13.003Z,671
2022-08-11T06:31:36.177Z,3057.1
2022-08-11T06:36:59.096Z,498.6
2022-08-11T06:42:22.011Z,1579.1
2022-08-11T06:47:44.768Z,1838.7
2022-08-11T06:53:09.125Z,1060.9
2022-08-11T06:58:32.172Z,1999.2
2022-08-11T07:03:55.312Z,2179.4
2022-08-11T07:09:25.016Z,1069.5
2022-08-11T07:14:47.941Z,1330.8
2022-08-11T07:20:10.492Z,2499.7
2022-08-11T07:25:35.336Z,2452.2
2022-08-11T07:36:28.777Z,2593.7
2022-08-11T07:41:51.792Z,1217.6
2022-08-11T07:47:14.984Z,1140.7
2022-08-11T07:52:41.223Z,1947.4
2022-08-11T07:58:20.575Z,1960.3
2022-08-11T08:03:55.085Z,2026.3
2022-08-11T08:09:17.550Z,1718.8
2022-08-11T08:14:40.098Z,684.4
2022-08-11T08:20:03.055Z,871
2022-08-11T08:25:26.386Z,3350.5
2022-08-11T08:30:50.203Z,3247.1
2022-08-11T08:36:13.827Z,3568.2
2022-08-11T08:41:39.144Z,3817.3
2022-08-11T08:47:02.213Z,3402.4
2022-08-11T08:52:44.342Z,3309.8
2022-08-11T08:58:16.443Z,3699.5
2022-08-11T09:07:20.896Z,4071.2
2022-08-11T09:12:44.674Z,4089.7
2022-08-11T09:18:07.150Z,4264.8
2022-08-11T09:29:39.032Z,3846
2022-08-11T09:35:01.409Z,3880.4
2022-08-11T09:40:59.964Z,3975.9
2022-08-11T09:46:22.663Z,3812.8
2022-08-11T09:52:08.245Z,3777.6
2022-08-11T09:57:30.776Z,3641.5
2022-08-11T10:03:08.005Z,3759.8
2022-08-11T10:14:35.385Z,4944.7
2022-08-11T10:20:06.348Z,3762.4
2022-08-11T10:25:31.919Z,4391.1
2022-08-11T10:30:54.386Z,4357.5
2022-08-11T10:38:28.647Z,4552.5
2022-08-11T10:44:04.396Z,4325.5
2022-08-11T10:49:26.752Z,4012.3
2022-08-11T10:54:56.641Z,4985
2022-08-11T11:00:19.164Z,4537.9
2022-08-11T11:07:33.465Z,4371.6
2022-08-11T11:12:56.562Z,4385.1
2022-08-11T11:18:18.736Z,4283.2
2022-08-11T11:23:41.079Z,4520.5
2022-08-11T11:29:23.293Z,4601.2
2022-08-11T11:34:54.402Z,4295.9
2022-08-11T11:46:11.689Z,3680.7
2022-08-11T11:51:34.417Z,4055.2
2022-08-11T11:57:16.465Z,3970.7
2022-08-11T12:02:39.243Z,3703.4
2022-08-11T12:08:13.637Z,4506.9
2022-08-11T12:31:11.418Z,4148.2
2022-08-11T12:36:35.121Z,3981.2
2022-08-11T12:42:01.991Z,3815.9
2022-08-11T12:47:24.388Z,3623.2
2022-08-11T12:52:51.624Z,3830.1
2022-08-11T12:58:26.067Z,3725.5
2022-08-11T13:03:57.258Z,3759.4
2022-08-11T13:09:20.035Z,3823.6
2022-08-11T13:20:44.719Z,3838.5
2022-08-11T13:26:14.488Z,4123
2022-08-11T13:36:47.917Z,3904.4
2022-08-11T13:42:22.178Z,3797.7
2022-08-11T13:47:44.608Z,3973.4
2022-08-11T13:53:07.297Z,3930.7
2022-08-11T13:58:41.525Z,3724.9
2022-08-11T14:05:13.650Z,4332
2022-08-11T14:28:16.056Z,4205.1
2022-08-11T14:34:03.944Z,4233
2022-08-11T14:40:04.668Z,4038
2022-08-11T14:46:02.768Z,3926.3
2022-08-11T14:51:25.616Z,3764.2
2022-08-11T14:56:47.642Z,1695.8
2022-08-11T15:02:08.588Z,495.5
2022-08-11T15:07:30.756Z,430.7
2022-08-11T15:12:52.704Z,383.3
2022-08-11T15:23:46.319Z,313.7
2022-08-11T15:29:08.662Z,295.7
2022-08-11T15:34:31.048Z,274.1
2022-08-11T15:39:53.953Z,240.3
2022-08-11T15:50:41.773Z,213.5
2022-08-11T16:07:42.000Z,202.6
2022-08-11T16:13:06.088Z,198.5
2022-08-11T16:18:28.450Z,180.2
2022-08-11T16:23:51.033Z,157.4
2022-08-11T16:29:13.511Z,158.5
2022-08-11T16:34:36.048Z,161.4
2022-08-11T16:39:58.825Z,161.2
2022-08-11T16:45:21.557Z,155.1
2022-08-11T17:01:32.283Z,158.6
2022-08-11T17:06:54.974Z,156.6
2022-08-11T17:12:28.758Z,155.4
2022-08-11T17:17:51.377Z,155.3
2022-08-11T17:23:13.952Z,139.3
2022-08-11T17:34:01.436Z,133.6
2022-08-11T17:39:24.092Z,136.4
2022-08-11T17:44:46.797Z,132.4
2022-08-11T17:50:18.727Z,136.3
2022-08-11T17:55:58.276Z,134.8
2022-08-11T18:01:21.749Z,128.4
2022-08-11T18:06:44.704Z,121.9
2022-08-11T18:12:15.893Z,109.7
2022-08-11T18:17:39.185Z,93.6
2022-08-11T18:23:04.467Z,85.5
2022-08-11T18:28:28.398Z,72.3
2022-08-11T18:34:15.399Z,60.6
2022-08-11T18:39:57.102Z,56.8
2022-08-11T18:45:19.679Z,47.1
2022-08-11T18:51:36.729Z,42.1
2022-08-11T18:57:00.030Z,38.2
2022-08-11T19:02:22.462Z,27.1
2022-08-11T19:07:44.932Z,23
2022-08-11T19:13:09.768Z,13
2022-08-11T19:18:33.253Z,5
2022-08-11T19:23:55.935Z,1
2022-08-11T19:30:14.627Z,0
2022-08-11T19:35:43.589Z,0
2022-08-11T19:46:31.380Z,0
2022-08-11T19:57:40.745Z,0
2022-08-11T20:03:17.499Z,0
2022-08-11T20:08:40.362Z,0
2022-08-11T20:14:17.257Z,0
2022-08-11T20:19:57.408Z,0
2022-08-11T20:25:21.168Z,0
2022-08-11T20:30:51.621Z,0
2022-08-11T20:36:14.439Z,0
2022-08-11T20:41:59.866Z,0
2022-08-11T20:47:23.129Z,0
2022-08-11T20:52:48.704Z,0
2022-08-11T20:58:24.192Z,0
2022-08-11T21:04:01.062Z,0
2022-08-11T21:10:15.923Z,0
2022-08-11T21:16:03.554Z,0
2022-08-11T21:21:27.741Z,0
2022-08-11T21:27:03.365Z,0
2022-08-11T21:32:26.102Z,0
2022-08-11T21:37:51.987Z,0
2022-08-11T21:43:16.662Z,0
2022-08-11T21:48:41.311Z,0
2022-08-11T21:54:04.380Z,0
2022-08-11T22:04:49.139Z,0
2022-08-11T22:16:10.081Z,0
2022-08-11T22:22:07.065Z,0
2022-08-11T22:27:29.874Z,0
2022-08-11T22:32:59.123Z,0
2022-08-11T22:38:24.938Z,0
2022-08-11T22:43:50.376Z,0
2022-08-11T22:49:21.843Z,0
2022-08-11T22:54:44.301Z,0
2022-08-11T23:00:09.470Z,0
2022-08-11T23:05:31.990Z,0
2022-08-11T23:10:54.519Z,0
2022-08-11T23:16:16.907Z,0
2022-08-11T23:21:42.812Z,0
2022-08-11T23:37:50.853Z,0
2022-08-11T23:43:13.442Z,0
2022-08-11T23:48:36.162Z,0
2022-08-11T23:53:58.587Z,0
2022-08-11T23:59:21.187Z,0
